createdAt,value
2022-12-18T00:02:14.513Z,61.07
2022-12-18T00:04:36.375Z,55.70
2022-12-18T00:06:58.206Z,58.00
2022-12-18T00:09:20.570Z,56.65
2022-12-18T00:11:42.826Z,61.53
2022-12-18T00:14:04.853Z,61.10
2022-12-18T00:16:29.108Z,54.50
2022-12-18T00:18:56.220Z,57.07
2022-12-18T00:21:19.081Z,59.43
2022-12-18T00:23:44.033Z,53.77
2022-12-18T00:26:16.868Z,56.42
2022-12-18T00:28:38.894Z,56.38
2022-12-18T00:31:16.742Z,56.30
2022-12-18T00:33:40.059Z,57.67
2022-12-18T00:36:14.748Z,58.10
2022-12-18T00:38:37.519Z,54.03
2022-12-18T00:40:59.660Z,54.92
2022-12-18T00:43:21.508Z,50.47
2022-12-18T00:45:43.373Z,54.63
2022-12-18T00:48:06.203Z,53.72
2022-12-18T00:50:28.304Z,57.20
2022-12-18T00:52:50.421Z,58.33
2022-12-18T00:55:13.238Z,66.22
2022-12-18T00:57:35.244Z,63.03
2022-12-18T00:59:57.021Z,63.08
2022-12-18T01:02:19.062Z,63.55
2022-12-18T01:04:40.934Z,67.78
2022-12-18T01:07:02.723Z,64.60
2022-12-18T01:09:24.659Z,86.80
2022-12-18T01:11:47.475Z,59.67
2022-12-18T01:14:09.742Z,64.25
2022-12-18T01:16:33.108Z,60.00
2022-12-18T01:18:56.115Z,47.90
2022-12-18T01:21:18.090Z,50.00
2022-12-18T01:23:40.907Z,45.85
2022-12-18T01:26:13.874Z,47.35
2022-12-18T01:28:36.405Z,47.92
2022-12-18T01:30:58.387Z,48.20
2022-12-18T01:33:20.215Z,47.95
2022-12-18T01:35:43.638Z,45.20
2022-12-18T01:38:05.502Z,57.53
2022-12-18T01:40:27.301Z,48.55
2022-12-18T01:42:54.837Z,52.22
2022-12-18T01:45:16.569Z,49.38
2022-12-18T01:47:56.200Z,56.80
2022-12-18T01:50:44.072Z,51.83
2022-12-18T01:53:09.143Z,49.35
2022-12-18T01:55:39.482Z,50.08
2022-12-18T01:58:02.130Z,47.05
2022-12-18T02:00:27.308Z,43.30
2022-12-18T02:02:50.513Z,41.58
2022-12-18T02:05:20.790Z,43.30
2022-12-18T02:08:10.221Z,41.38
2022-12-18T02:10:41.353Z,42.47
2022-12-18T02:13:50.368Z,44.25
2022-12-18T02:16:36.428Z,43.33
2022-12-18T02:19:08.031Z,43.22
2022-12-18T02:22:04.317Z,39.75
2022-12-18T02:25:34.045Z,41.08
2022-12-18T02:28:01.659Z,35.95
2022-12-18T02:30:24.378Z,39.08
2022-12-18T02:32:53.873Z,38.42
2022-12-18T02:35:25.161Z,37.90
2022-12-18T02:37:50.606Z,39.38
2022-12-18T02:40:15.172Z,35.78
2022-12-18T02:42:37.061Z,33.08
2022-12-18T02:45:01.671Z,36.47
2022-12-18T02:47:30.483Z,37.13
2022-12-18T02:50:26.052Z,41.47
2022-12-18T02:53:23.106Z,40.65
2022-12-18T02:56:30.923Z,38.28
2022-12-18T02:59:14.245Z,37.00
2022-12-18T03:02:03.887Z,36.38
2022-12-18T03:04:49.775Z,38.13
2022-12-18T03:07:28.648Z,36.92
2022-12-18T03:09:55.742Z,37.63
2022-12-18T03:12:45.948Z,32.20
2022-12-18T03:15:18.076Z,30.13
2022-12-18T03:17:49.924Z,34.10
2022-12-18T03:20:20.022Z,32.13
2022-12-18T03:22:47.875Z,31.52
2022-12-18T03:25:15.669Z,35.17
2022-12-18T03:27:47.424Z,31.90
2022-12-18T03:30:14.656Z,36.53
2022-12-18T03:32:57.582Z,31.30
2022-12-18T03:35:31.383Z,29.42
2022-12-18T03:37:53.656Z,31.17
2022-12-18T03:40:15.960Z,34.30
2022-12-18T03:42:53.311Z,33.20
2022-12-18T03:45:33.687Z,28.60
2022-12-18T03:48:06.996Z,28.08
2022-12-18T03:50:57.897Z,28.00
2022-12-18T03:53:32.446Z,26.77
2022-12-18T03:55:56.840Z,26.67
2022-12-18T03:58:27.552Z,29.52
2022-12-18T04:01:03.787Z,30.45
2022-12-18T04:03:30.027Z,29.10
2022-12-18T04:05:56.297Z,32.05
2022-12-18T04:08:19.760Z,27.85
2022-12-18T04:10:49.895Z,29.02
2022-12-18T04:13:12.102Z,28.27
2022-12-18T04:15:37.313Z,29.17
2022-12-18T04:18:01.211Z,26.63
2022-12-18T04:20:31.168Z,31.00
2022-12-18T04:22:54.301Z,29.63
2022-12-18T04:25:16.452Z,28.17
2022-12-18T04:27:50.185Z,28.73
2022-12-18T04:30:12.618Z,25.10
2022-12-18T04:32:35.551Z,30.35
2022-12-18T04:34:57.430Z,28.27
2022-12-18T04:37:19.781Z,27.00
2022-12-18T04:39:42.431Z,26.42
2022-12-18T04:42:11.311Z,26.23
2022-12-18T04:44:33.175Z,24.10
2022-12-18T04:46:55.070Z,27.23
2022-12-18T04:49:17.939Z,26.40
2022-12-18T04:51:40.140Z,28.08
2022-12-18T04:54:02.094Z,41.83
2022-12-18T04:56:24.686Z,24.40
2022-12-18T04:58:46.717Z,28.63
2022-12-18T05:01:10.415Z,24.08
2022-12-18T05:03:32.879Z,28.92
2022-12-18T05:05:54.854Z,26.13
2022-12-18T05:08:16.822Z,25.83
2022-12-18T05:10:38.646Z,25.95
2022-12-18T05:13:01.125Z,28.00
2022-12-18T05:15:23.340Z,24.20
2022-12-18T05:17:45.606Z,27.05
2022-12-18T05:20:08.178Z,26.02
2022-12-18T05:22:29.953Z,25.63
2022-12-18T05:24:51.955Z,25.42
2022-12-18T05:27:13.763Z,26.08
2022-12-18T05:29:35.590Z,29.23
2022-12-18T05:31:57.523Z,29.38
2022-12-18T05:34:19.383Z,28.48
2022-12-18T05:36:41.223Z,24.10
2022-12-18T05:39:03.571Z,28.30
2022-12-18T05:41:26.178Z,23.25
2022-12-18T05:43:48.259Z,25.17
2022-12-18T05:46:15.889Z,21.55
2022-12-18T05:48:37.710Z,25.42
2022-12-18T05:51:08.021Z,26.08
2022-12-18T05:53:29.928Z,26.50
2022-12-18T05:55:51.785Z,27.00
2022-12-18T05:58:15.989Z,26.92
2022-12-18T06:03:03.989Z,29.58
2022-12-18T06:05:26.549Z,28.58
2022-12-18T06:07:48.425Z,27.77
2022-12-18T06:10:10.514Z,24.52
2022-12-18T06:12:34.426Z,25.75
2022-12-18T06:14:56.285Z,25.08
2022-12-18T06:17:18.181Z,29.88
2022-12-18T06:19:40.006Z,23.92
2022-12-18T06:22:01.784Z,26.48
2022-12-18T06:24:23.647Z,28.35
2022-12-18T06:26:45.446Z,28.83
2022-12-18T06:29:07.387Z,25.95
2022-12-18T06:31:29.247Z,27.90
2022-12-18T06:33:51.597Z,27.75
2022-12-18T06:36:14.716Z,27.88
2022-12-18T06:38:39.801Z,27.85
2022-12-18T06:41:06.678Z,28.40
2022-12-18T06:43:28.696Z,27.48
2022-12-18T06:45:53.612Z,29.83
2022-12-18T06:48:15.660Z,26.35
2022-12-18T06:50:37.394Z,29.20
2022-12-18T06:52:59.213Z,26.75
2022-12-18T06:55:21.194Z,27.95
2022-12-18T06:57:43.130Z,27.90
2022-12-18T07:00:07.787Z,27.17
2022-12-18T07:02:29.749Z,28.40
2022-12-18T07:04:51.671Z,24.77
2022-12-18T07:07:13.704Z,24.65
2022-12-18T07:09:35.781Z,26.25
2022-12-18T07:11:57.595Z,25.50
2022-12-18T07:14:20.273Z,27.27
2022-12-18T07:16:42.132Z,26.77
2022-12-18T07:19:04.025Z,24.52
2022-12-18T07:21:26.599Z,26.93
2022-12-18T07:23:49.349Z,25.75
2022-12-18T07:26:14.869Z,23.85
2022-12-18T07:28:38.683Z,23.50
2022-12-18T07:31:22.244Z,25.30
2022-12-18T07:33:45.317Z,25.20
2022-12-18T07:36:09.008Z,25.10
2022-12-18T07:38:32.278Z,24.70
2022-12-18T07:40:54.124Z,25.92
2022-12-18T07:43:16.000Z,25.95
2022-12-18T07:45:37.813Z,21.92
2022-12-18T07:47:59.698Z,25.67
2022-12-18T07:50:21.635Z,25.58
2022-12-18T07:52:43.693Z,25.98
2022-12-18T07:55:06.315Z,27.20
2022-12-18T08:00:12.639Z,27.17
2022-12-18T08:02:35.003Z,24.70
2022-12-18T08:04:57.363Z,27.83
2022-12-18T08:07:19.559Z,24.88
2022-12-18T08:09:41.463Z,24.00
2022-12-18T08:12:03.718Z,26.67
2022-12-18T08:14:25.889Z,26.30
2022-12-18T08:16:47.954Z,28.52
2022-12-18T08:19:09.835Z,26.95
2022-12-18T08:21:32.764Z,30.03
2022-12-18T08:23:57.257Z,26.50
2022-12-18T08:26:20.167Z,28.63
2022-12-18T08:28:43.452Z,31.23
2022-12-18T08:31:06.301Z,31.53
2022-12-18T08:33:28.523Z,30.02
2022-12-18T08:35:50.557Z,28.57
2022-12-18T08:38:12.481Z,27.60
2022-12-18T08:40:34.577Z,29.90
2022-12-18T08:43:15.048Z,27.00
2022-12-18T08:45:37.052Z,29.25
2022-12-18T08:47:58.945Z,27.17
2022-12-18T08:50:21.188Z,27.77
2022-12-18T08:52:43.108Z,25.63
2022-12-18T08:55:05.897Z,27.13
2022-12-18T08:57:27.804Z,24.37
2022-12-18T08:59:50.080Z,25.97
2022-12-18T09:02:12.794Z,25.70
2022-12-18T09:04:35.111Z,26.07
2022-12-18T09:06:57.011Z,24.37
2022-12-18T09:09:19.038Z,25.53
2022-12-18T09:11:40.986Z,25.07
2022-12-18T09:14:03.048Z,24.00
2022-12-18T09:16:32.408Z,26.63
2022-12-18T09:19:00.499Z,23.00
2022-12-18T09:21:22.528Z,36.47
2022-12-18T09:23:51.054Z,34.13
2022-12-18T09:26:12.943Z,37.33
2022-12-18T09:28:34.913Z,27.67
2022-12-18T09:30:57.015Z,31.03
2022-12-18T09:33:19.066Z,82.50
2022-12-18T09:35:44.531Z,37.90
2022-12-18T09:38:09.725Z,28.67
2022-12-18T09:40:42.537Z,24.60
2022-12-18T09:43:12.308Z,26.10
2022-12-18T09:45:48.618Z,28.37
2022-12-18T09:48:29.167Z,23.23
2022-12-18T09:50:58.665Z,24.73
2022-12-18T09:53:29.415Z,22.63
2022-12-18T09:55:55.575Z,23.23
2022-12-18T09:58:45.516Z,22.60
2022-12-18T10:01:24.285Z,26.83
2022-12-18T10:03:46.585Z,24.30
2022-12-18T10:06:38.001Z,24.03
2022-12-18T10:09:50.865Z,21.50
2022-12-18T10:12:33.554Z,22.77
2022-12-18T10:15:17.899Z,24.57
2022-12-18T10:17:51.415Z,31.05
2022-12-18T10:20:36.400Z,25.57
2022-12-18T10:26:10.794Z,24.57
2022-12-18T10:28:38.475Z,20.57
2022-12-18T10:31:18.555Z,22.67
2022-12-18T10:33:42.432Z,22.13
2022-12-18T10:36:07.631Z,21.92
2022-12-18T10:38:33.548Z,19.87
2022-12-18T10:41:04.415Z,22.27
2022-12-18T10:43:34.649Z,21.87
2022-12-18T10:46:09.066Z,25.37
2022-12-18T10:48:35.873Z,19.77
2022-12-18T10:51:10.861Z,21.83
2022-12-18T10:53:38.821Z,21.30
2022-12-18T10:56:05.849Z,25.17
2022-12-18T10:58:38.670Z,23.77
2022-12-18T11:01:19.384Z,21.63
2022-12-18T11:03:45.512Z,28.80
2022-12-18T21:42:27.117Z,40.80
2022-12-18T21:45:31.403Z,43.55
2022-12-18T23:49:12.595Z,50.87
2022-12-18T23:53:05.551Z,52.13
2022-12-18T23:55:31.825Z,54.65
2022-12-18T23:57:55.891Z,49.07
